createdAt,value
2023-03-27T00:01:16.736Z,98954.38
2023-03-27T00:03:43.418Z,98969.97
2023-03-27T00:06:16.395Z,98976.19
2023-03-27T00:08:48.365Z,98972.00
2023-03-27T00:11:15.552Z,98985.66
2023-03-27T00:13:49.958Z,98989.97
2023-03-27T00:16:22.882Z,99005.69
2023-03-27T00:18:49.516Z,99004.25
2023-03-27T00:21:16.299Z,99012.06
2023-03-27T00:23:42.698Z,99021.00
2023-03-27T00:26:09.821Z,99014.06
2023-03-27T00:28:36.231Z,99028.66
2023-03-27T00:31:02.882Z,99025.72
2023-03-27T00:33:29.495Z,99043.56
2023-03-27T00:35:55.924Z,99037.53
2023-03-27T00:38:22.779Z,99038.00
2023-03-27T00:40:50.738Z,99038.72
2023-03-27T00:43:30.037Z,99055.44
2023-03-27T00:46:01.206Z,99056.50
2023-03-27T00:48:28.799Z,99059.50
2023-03-27T00:50:57.237Z,99063.19
2023-03-27T00:53:29.148Z,99063.13
2023-03-27T00:56:01.055Z,99056.47
2023-03-27T00:58:42.615Z,99059.78
2023-03-27T01:01:12.005Z,99079.50
2023-03-27T01:03:41.977Z,99089.53
2023-03-27T01:06:10.996Z,99092.47
2023-03-27T01:08:38.237Z,99108.19
2023-03-27T01:11:30.164Z,99105.78
2023-03-27T01:14:12.002Z,99110.53
2023-03-27T01:16:43.723Z,99117.59
2023-03-27T01:19:35.331Z,99116.53
2023-03-27T01:22:21.848Z,99119.66
2023-03-27T01:25:22.445Z,99128.44
2023-03-27T01:28:23.137Z,99135.84
2023-03-27T01:31:03.423Z,99137.38
2023-03-27T01:33:54.784Z,99151.03
2023-03-27T01:37:06.452Z,99143.25
2023-03-27T01:39:32.824Z,99158.44
2023-03-27T01:42:11.021Z,99167.50
2023-03-27T01:44:47.451Z,99170.78
2023-03-27T01:47:52.568Z,99163.47
2023-03-27T01:50:30.464Z,99167.41
2023-03-27T01:53:12.811Z,99178.25
2023-03-27T01:55:44.178Z,99167.59
2023-03-27T01:58:22.416Z,99175.56
2023-03-27T02:00:53.528Z,99191.72
2023-03-27T02:03:36.843Z,99196.09
2023-03-27T02:06:08.521Z,99197.72
2023-03-27T02:08:49.066Z,99208.19
2023-03-27T02:11:18.733Z,99205.38
2023-03-27T02:13:51.756Z,99216.78
2023-03-27T02:16:23.436Z,99204.81
2023-03-27T02:18:57.996Z,99211.91
2023-03-27T02:21:24.716Z,99218.34
2023-03-27T02:23:52.899Z,99230.13
2023-03-27T02:26:19.391Z,99246.81
2023-03-27T02:29:22.971Z,99244.72
2023-03-27T02:32:39.465Z,99256.66
2023-03-27T02:35:35.561Z,99259.22
2023-03-27T02:38:43.892Z,99264.63
2023-03-27T02:41:23.336Z,99278.53
2023-03-27T02:44:47.272Z,99273.88
2023-03-27T02:47:21.613Z,99274.72
2023-03-27T02:49:57.443Z,99291.56
2023-03-27T02:52:32.425Z,99280.16
2023-03-27T02:55:06.411Z,99286.31
2023-03-27T02:57:39.935Z,99299.59
2023-03-27T03:00:27.969Z,99305.69
2023-03-27T03:03:18.130Z,99312.22
2023-03-27T03:05:55.818Z,99308.13
2023-03-27T03:08:22.496Z,99314.44
2023-03-27T03:10:49.154Z,99321.47
2023-03-27T03:13:16.378Z,99319.34
2023-03-27T03:15:45.836Z,99335.69
2023-03-27T03:18:12.959Z,99327.19
2023-03-27T03:20:39.705Z,99335.56
2023-03-27T03:23:06.744Z,99342.41
2023-03-27T03:25:33.506Z,99347.53
2023-03-27T03:27:59.833Z,99353.06
2023-03-27T03:30:28.998Z,99359.13
2023-03-27T03:33:01.241Z,99369.09
2023-03-27T03:35:28.249Z,99368.94
2023-03-27T03:37:58.760Z,99377.91
2023-03-27T03:40:26.232Z,99373.28
2023-03-27T03:42:56.531Z,99395.13
2023-03-27T03:45:26.651Z,99387.53
2023-03-27T03:47:53.546Z,99394.88
2023-03-27T03:50:20.068Z,99397.66
2023-03-27T03:52:47.158Z,99405.03
2023-03-27T03:55:15.712Z,99408.31
2023-03-27T03:57:46.959Z,99409.81
2023-03-27T04:00:19.000Z,99429.72
2023-03-27T04:02:51.268Z,99420.31
2023-03-27T04:05:17.963Z,99427.34
2023-03-27T04:07:45.509Z,99428.88
2023-03-27T04:10:39.328Z,99426.34
2023-03-27T04:13:12.725Z,99447.78
2023-03-27T04:15:49.262Z,99448.97
2023-03-27T04:18:33.056Z,99451.34
2023-03-27T04:21:02.919Z,99459.69
2023-03-27T04:23:32.291Z,99464.00
2023-03-27T04:26:00.979Z,99459.16
2023-03-27T04:28:42.015Z,99480.19
2023-03-27T04:31:30.165Z,99480.00
2023-03-27T04:34:20.361Z,99488.75
2023-03-27T04:37:05.320Z,99494.91
2023-03-27T04:39:39.528Z,99508.84
2023-03-27T04:42:06.307Z,99502.75
2023-03-27T04:44:34.796Z,99497.06
2023-03-27T04:47:02.208Z,99515.16
2023-03-27T04:49:29.483Z,99498.81
2023-03-27T04:52:00.786Z,99504.56
2023-03-27T04:54:31.637Z,99514.00
2023-03-27T04:56:59.013Z,99517.72
2023-03-27T04:59:25.416Z,99525.56
2023-03-27T05:02:14.407Z,99518.00
2023-03-27T05:04:51.368Z,99521.53
2023-03-27T05:07:19.909Z,99524.44
2023-03-27T05:09:46.928Z,99528.59
2023-03-27T05:12:13.408Z,99537.69
2023-03-27T05:14:49.111Z,99549.63
2023-03-27T05:17:32.416Z,99554.13
2023-03-27T05:19:58.917Z,99561.47
2023-03-27T05:22:25.246Z,99562.94
2023-03-27T05:25:01.499Z,99570.16
2023-03-27T05:27:28.177Z,99572.78
2023-03-27T05:29:57.466Z,99590.31
2023-03-27T05:32:23.951Z,99586.63
2023-03-27T05:35:06.130Z,99587.69
2023-03-27T05:37:38.435Z,99604.00
2023-03-27T05:40:24.587Z,99605.06
2023-03-27T05:42:51.777Z,99609.16
2023-03-27T05:45:19.116Z,99593.47
2023-03-27T05:47:51.772Z,99609.53
2023-03-27T05:50:21.620Z,99616.69
2023-03-27T05:52:54.812Z,99616.00
2023-03-27T05:55:27.704Z,99618.16
2023-03-27T05:57:55.483Z,99618.38
2023-03-27T06:00:25.644Z,99625.84
2023-03-27T06:02:56.140Z,99636.44
2023-03-27T06:05:33.863Z,99641.97
2023-03-27T06:08:02.051Z,99645.81
2023-03-27T06:10:30.592Z,99650.13
2023-03-27T06:13:14.542Z,99653.50
2023-03-27T06:15:53.629Z,99667.53
2023-03-27T06:18:38.601Z,99666.91
2023-03-27T06:21:05.556Z,99674.38
2023-03-27T06:23:32.344Z,99674.72
2023-03-27T06:25:59.393Z,99679.91
2023-03-27T06:28:28.445Z,99681.97
2023-03-27T06:30:54.819Z,99685.66
2023-03-27T06:33:35.086Z,99689.19
2023-03-27T06:36:06.080Z,99694.78
2023-03-27T06:38:37.150Z,99698.31
2023-03-27T06:41:04.753Z,99696.94
2023-03-27T06:43:49.467Z,99699.94
2023-03-27T06:46:42.792Z,99706.66
2023-03-27T06:49:18.169Z,99717.34
2023-03-27T06:51:44.935Z,99702.56
2023-03-27T06:54:13.407Z,99706.69
2023-03-27T06:56:44.368Z,99714.78
2023-03-27T06:59:16.573Z,99720.31
2023-03-27T07:01:46.101Z,99722.25
2023-03-27T07:04:27.410Z,99721.13
2023-03-27T07:07:00.476Z,99722.44
2023-03-27T07:09:31.754Z,99732.34
2023-03-27T07:12:02.735Z,99734.28
2023-03-27T07:14:29.610Z,99743.78
2023-03-27T07:16:56.948Z,99740.22
2023-03-27T07:19:27.122Z,99743.66
2023-03-27T07:22:02.410Z,99747.81
2023-03-27T07:24:31.998Z,99754.25
2023-03-27T07:26:58.523Z,99759.72
2023-03-27T07:29:31.725Z,99765.59
2023-03-27T07:32:01.532Z,99768.03
2023-03-27T07:34:38.400Z,99776.06
2023-03-27T07:37:42.705Z,99774.25
2023-03-27T07:40:38.791Z,99782.97
2023-03-27T07:43:42.160Z,99786.69
2023-03-27T07:46:09.468Z,99788.91
2023-03-27T07:48:36.113Z,99787.63
2023-03-27T07:51:13.335Z,99791.28
2023-03-27T07:53:41.402Z,99797.41
2023-03-27T07:56:14.592Z,99802.50
2023-03-27T07:58:43.583Z,99797.31
2023-03-27T08:01:11.471Z,99815.75
2023-03-27T08:03:39.320Z,99810.53
2023-03-27T08:06:07.455Z,99814.03
2023-03-27T08:08:34.555Z,99823.66
2023-03-27T08:11:02.799Z,99817.94
2023-03-27T08:13:34.006Z,99832.53
2023-03-27T08:16:12.288Z,99833.06
2023-03-27T08:18:39.086Z,99814.72
2023-03-27T08:21:08.528Z,99833.13
2023-03-27T08:23:37.484Z,99812.66
2023-03-27T08:26:24.941Z,99826.66
2023-03-27T08:28:56.335Z,99820.16
2023-03-27T08:31:27.732Z,99830.97
2023-03-27T08:33:57.915Z,99827.66
2023-03-27T08:36:27.644Z,99842.41
2023-03-27T08:38:55.265Z,99840.44
2023-03-27T08:41:42.310Z,99854.16
2023-03-27T08:44:31.621Z,99850.19
2023-03-27T08:47:06.312Z,99853.19
2023-03-27T08:49:46.293Z,99856.59
2023-03-27T08:52:31.948Z,99872.94
2023-03-27T08:55:18.585Z,99862.13
2023-03-27T08:57:59.611Z,99857.31
2023-03-27T09:00:33.840Z,99865.78
2023-03-27T09:03:29.828Z,99868.41
2023-03-27T09:06:03.408Z,99872.28
2023-03-27T09:08:50.290Z,99876.84
2023-03-27T09:11:39.838Z,99867.75
2023-03-27T09:14:20.288Z,99873.88
2023-03-27T09:16:50.404Z,99867.78
2023-03-27T09:19:48.779Z,99880.88
2023-03-27T09:22:27.412Z,99893.44
2023-03-27T09:25:10.864Z,99885.28
2023-03-27T09:27:57.424Z,99893.13
2023-03-27T09:30:33.472Z,99883.28
2023-03-27T09:33:11.756Z,99895.38
2023-03-27T09:35:42.492Z,99890.00
2023-03-27T09:38:21.574Z,99889.75
2023-03-27T09:41:00.549Z,99900.59
2023-03-27T09:43:46.526Z,99892.84
2023-03-27T09:46:19.263Z,99902.06
2023-03-27T09:49:00.989Z,99888.97
2023-03-27T09:51:42.632Z,99905.00
2023-03-27T09:54:22.211Z,99906.88
2023-03-27T09:57:10.931Z,99907.00
2023-03-27T09:59:40.398Z,99893.47
2023-03-27T10:02:24.347Z,99908.13
2023-03-27T10:05:16.843Z,99905.09
2023-03-27T10:07:46.590Z,99897.31
2023-03-27T10:10:41.919Z,99889.19
2023-03-27T10:13:45.689Z,99900.84
2023-03-27T10:16:17.823Z,99902.06
2023-03-27T10:18:58.159Z,99901.19
2023-03-27T10:21:30.955Z,99900.25
2023-03-27T10:24:04.144Z,99895.16
2023-03-27T10:26:47.781Z,99905.78
2023-03-27T10:29:28.696Z,99915.47
2023-03-27T10:31:57.765Z,99927.81
2023-03-27T10:34:50.710Z,99938.69
2023-03-27T10:37:36.068Z,99948.56
2023-03-27T10:40:35.920Z,99948.22
2023-03-27T10:43:28.326Z,99964.75
2023-03-27T10:46:00.415Z,99965.34
2023-03-27T10:48:44.801Z,99973.16
2023-03-27T10:51:43.060Z,99958.75
2023-03-27T10:54:38.436Z,99959.59
2023-03-27T10:57:17.088Z,99953.78
2023-03-27T11:00:01.275Z,99957.16
2023-03-27T11:02:50.253Z,99955.91
2023-03-27T11:05:24.467Z,99941.19
2023-03-27T11:07:57.108Z,99931.16
2023-03-27T11:10:31.429Z,99936.69
2023-03-27T11:13:04.361Z,99941.22
2023-03-27T11:15:42.371Z,99930.91
2023-03-27T11:18:34.321Z,99938.41
2023-03-27T11:21:12.561Z,99938.41
2023-03-27T11:23:54.703Z,99940.31
2023-03-27T11:26:53.715Z,99950.69
2023-03-27T11:29:30.007Z,99960.94
2023-03-27T11:32:05.980Z,99954.81
2023-03-27T11:35:07.294Z,99957.13
2023-03-27T11:37:59.589Z,99959.47
2023-03-27T11:40:35.161Z,99983.81
2023-03-27T11:43:02.769Z,100001.00
2023-03-27T11:45:52.925Z,99991.13
2023-03-27T11:48:38.642Z,99980.16
2023-03-27T11:51:42.357Z,99988.59
2023-03-27T11:54:28.974Z,99986.59
2023-03-27T11:57:05.851Z,99985.41
2023-03-27T12:00:17.618Z,99976.47
2023-03-27T12:03:08.593Z,99984.72
2023-03-27T12:05:59.188Z,99973.88
2023-03-27T12:09:06.531Z,99977.41
2023-03-27T12:11:58.033Z,99975.72
2023-03-27T12:15:03.983Z,99969.34
2023-03-27T12:17:54.043Z,99974.19
2023-03-27T12:20:28.716Z,99968.84
2023-03-27T12:23:49.600Z,99979.72
2023-03-27T12:26:53.027Z,99976.22
2023-03-27T12:30:04.969Z,99976.09
2023-03-27T12:33:00.344Z,99986.06
2023-03-27T12:35:32.038Z,99968.88
2023-03-27T12:38:03.999Z,99970.09
2023-03-27T12:40:47.567Z,99970.44
2023-03-27T12:43:21.132Z,99969.47
2023-03-27T12:46:07.009Z,99966.38
2023-03-27T12:48:34.695Z,99946.72
2023-03-27T12:51:01.315Z,99945.88
2023-03-27T12:53:30.783Z,99957.03
2023-03-27T12:56:19.358Z,99953.19
2023-03-27T12:58:52.206Z,99971.28
2023-03-27T13:01:52.223Z,99982.47
2023-03-27T13:04:58.470Z,100004.59
2023-03-27T13:07:53.481Z,99999.63
2023-03-27T13:11:11.737Z,99993.34
2023-03-27T13:14:01.611Z,100005.16
2023-03-27T13:16:41.827Z,99989.22
2023-03-27T13:19:53.763Z,99983.75
2023-03-27T13:22:40.339Z,99977.31
2023-03-27T13:25:12.426Z,99984.88
2023-03-27T13:28:10.602Z,99974.75
2023-03-27T13:30:52.204Z,99965.34
2023-03-27T13:34:10.685Z,99974.50
2023-03-27T13:36:47.449Z,99976.97
2023-03-27T13:39:24.690Z,99977.41
2023-03-27T13:42:21.143Z,99979.28
2023-03-27T13:45:20.283Z,99980.84
2023-03-27T13:48:26.956Z,99976.25
2023-03-27T13:51:19.463Z,99976.84
2023-03-27T13:54:02.623Z,99961.13
2023-03-27T13:56:55.576Z,99974.16
2023-03-27T14:00:01.750Z,99983.06
2023-03-27T14:03:17.796Z,100002.44
2023-03-27T14:06:04.488Z,100045.59
2023-03-27T14:08:55.353Z,100048.88
2023-03-27T14:11:56.878Z,100059.72
2023-03-27T14:15:09.954Z,100048.00
2023-03-27T14:17:55.498Z,100060.00
2023-03-27T14:20:29.829Z,100052.78
2023-03-27T14:23:17.876Z,100060.00
2023-03-27T14:26:11.999Z,100075.25
2023-03-27T14:28:51.527Z,100088.94
2023-03-27T14:31:35.134Z,100098.94
2023-03-27T14:34:24.788Z,100088.97
2023-03-27T14:37:28.756Z,100081.69
2023-03-27T14:39:59.580Z,100075.34
2023-03-27T14:42:36.503Z,100077.47
2023-03-27T14:45:17.973Z,100070.59
2023-03-27T14:47:49.498Z,100066.97
2023-03-27T14:50:17.255Z,100069.94
2023-03-27T14:52:45.108Z,100050.78
2023-03-27T14:55:36.265Z,100077.38
2023-03-27T14:58:24.827Z,100074.00
2023-03-27T15:01:00.261Z,100081.72
2023-03-27T15:03:30.777Z,100076.00
2023-03-27T15:06:13.377Z,100067.06
2023-03-27T15:08:50.229Z,100070.34
2023-03-27T15:11:40.891Z,100062.53
2023-03-27T15:14:18.728Z,100078.22
2023-03-27T15:17:14.361Z,100057.00
2023-03-27T15:19:48.778Z,100077.75
2023-03-27T15:22:27.561Z,100081.06
2023-03-27T15:25:00.811Z,100061.31
2023-03-27T15:27:30.707Z,100071.19
2023-03-27T15:30:07.596Z,100087.53
2023-03-27T15:32:42.437Z,100095.69
2023-03-27T15:35:15.635Z,100097.59
2023-03-27T15:37:42.741Z,100107.06
2023-03-27T15:40:23.826Z,100115.53
2023-03-27T15:42:50.278Z,100104.78
2023-03-27T15:45:22.867Z,100103.75
2023-03-27T15:48:02.764Z,100090.59
2023-03-27T15:50:29.356Z,100089.59
2023-03-27T15:52:57.998Z,100090.06
2023-03-27T15:55:47.216Z,100086.25
2023-03-27T15:58:23.147Z,100098.38
2023-03-27T16:00:52.240Z,100104.47
2023-03-27T16:03:24.715Z,100102.88
2023-03-27T16:05:57.300Z,100110.31
2023-03-27T16:08:37.522Z,100104.56
2023-03-27T16:11:06.237Z,100114.28
2023-03-27T16:13:55.887Z,100108.00
2023-03-27T16:16:25.942Z,100097.84
2023-03-27T16:18:52.742Z,100112.69
2023-03-27T16:21:24.988Z,100112.44
2023-03-27T16:23:51.392Z,100102.84
2023-03-27T16:26:28.054Z,100107.78
2023-03-27T16:28:57.531Z,100112.28
2023-03-27T16:31:24.073Z,100098.31
2023-03-27T16:33:50.968Z,100114.66
2023-03-27T16:36:27.293Z,100123.75
2023-03-27T16:38:53.611Z,100139.66
2023-03-27T16:41:20.114Z,100203.06
2023-03-27T16:43:46.505Z,100187.28
2023-03-27T16:46:23.987Z,100175.47
2023-03-27T16:48:51.695Z,100185.78
2023-03-27T16:51:22.358Z,100197.13
2023-03-27T16:53:48.823Z,100183.47
2023-03-27T16:56:15.258Z,100174.84
2023-03-27T16:58:42.790Z,100168.34
2023-03-27T17:01:09.489Z,100177.47
2023-03-27T17:03:38.601Z,100184.25
2023-03-27T17:06:07.871Z,100192.88
2023-03-27T17:08:34.748Z,100197.31
2023-03-27T17:11:07.329Z,100194.28
2023-03-27T17:13:34.191Z,100205.09
2023-03-27T17:16:00.814Z,100196.66
2023-03-27T17:18:27.709Z,100217.28
2023-03-27T17:20:54.374Z,100201.47
2023-03-27T17:23:21.021Z,100200.00
2023-03-27T17:25:47.576Z,100209.09
2023-03-27T17:28:13.986Z,100214.34
2023-03-27T17:31:04.024Z,100215.25
2023-03-27T17:33:31.313Z,100222.34
2023-03-27T17:35:57.967Z,100228.19
2023-03-27T17:38:24.587Z,100220.69
2023-03-27T17:40:51.447Z,100232.56
2023-03-27T17:43:18.149Z,100232.28
2023-03-27T17:45:44.542Z,100239.03
2023-03-27T17:48:11.319Z,100222.94
2023-03-27T17:50:39.618Z,100227.78
2023-03-27T17:53:06.694Z,100240.16
2023-03-27T17:55:33.104Z,100245.56
2023-03-27T17:58:08.823Z,100243.34
2023-03-27T18:00:37.497Z,100257.09
2023-03-27T18:03:04.477Z,100257.28
2023-03-27T18:05:34.729Z,100256.38
2023-03-27T18:08:01.050Z,100251.03
2023-03-27T18:10:27.356Z,100250.84
2023-03-27T18:12:53.698Z,100252.00
2023-03-27T18:15:20.068Z,100250.63
2023-03-27T18:17:46.440Z,100255.59
2023-03-27T18:20:13.090Z,100258.06
2023-03-27T18:22:40.067Z,100265.16
2023-03-27T18:25:11.112Z,100259.34
2023-03-27T18:27:40.066Z,100261.13
2023-03-27T18:30:13.162Z,100265.94
2023-03-27T18:32:41.442Z,100263.19
2023-03-27T18:35:10.786Z,100264.66
2023-03-27T18:37:37.129Z,100262.50
2023-03-27T18:40:08.069Z,100266.50
2023-03-27T18:42:36.324Z,100271.47
2023-03-27T18:45:04.112Z,100284.88
2023-03-27T18:47:30.825Z,100287.97
2023-03-27T18:49:57.535Z,100292.50
2023-03-27T18:52:24.500Z,100292.50
2023-03-27T18:54:50.815Z,100296.16
2023-03-27T18:57:20.597Z,100296.97
2023-03-27T18:59:48.289Z,100303.91
2023-03-27T19:02:15.279Z,100315.97
2023-03-27T19:04:41.601Z,100309.91
2023-03-27T19:07:08.865Z,100309.03
2023-03-27T19:09:41.253Z,100316.53
2023-03-27T19:12:09.312Z,100316.78
2023-03-27T19:14:54.297Z,100315.22
2023-03-27T19:17:53.084Z,100328.47
2023-03-27T19:20:46.385Z,100323.09
2023-03-27T19:23:21.447Z,100321.56
2023-03-27T19:25:51.035Z,100326.78
2023-03-27T19:28:17.468Z,100321.97
2023-03-27T19:30:46.747Z,100329.81
2023-03-27T19:33:13.112Z,100323.34
2023-03-27T19:35:39.443Z,100331.69
2023-03-27T19:38:05.772Z,100332.50
2023-03-27T19:40:32.258Z,100325.41
2023-03-27T19:42:58.567Z,100325.63
2023-03-27T19:45:26.206Z,100319.16
2023-03-27T19:47:52.715Z,100326.75
2023-03-27T19:50:19.179Z,100336.69
2023-03-27T19:53:05.394Z,100333.34
2023-03-27T19:55:34.392Z,100342.88
2023-03-27T19:58:00.727Z,100344.38
2023-03-27T20:00:27.726Z,100352.69
2023-03-27T20:02:54.901Z,100354.00
2023-03-27T20:05:22.091Z,100356.03
2023-03-27T20:07:48.457Z,100355.56
2023-03-27T20:10:15.970Z,100362.88
2023-03-27T20:12:42.296Z,100358.06
2023-03-27T20:15:12.160Z,100369.94
2023-03-27T20:17:42.669Z,100369.16
2023-03-27T20:20:12.291Z,100366.25
2023-03-27T20:22:50.032Z,100361.78
2023-03-27T20:25:21.069Z,100368.31
2023-03-27T20:27:48.108Z,100370.66
2023-03-27T20:30:14.553Z,100365.19
2023-03-27T20:32:41.800Z,100360.91
2023-03-27T20:35:20.575Z,100365.75
2023-03-27T20:37:50.188Z,100374.34
2023-03-27T20:40:20.441Z,100372.69
2023-03-27T20:42:46.918Z,100364.72
2023-03-27T20:45:19.214Z,100371.25
2023-03-27T20:47:48.451Z,100365.13
2023-03-27T20:50:16.045Z,100374.44
2023-03-27T20:52:44.791Z,100372.78
2023-03-27T20:55:17.373Z,100371.59
2023-03-27T20:57:49.633Z,100368.91
2023-03-27T21:00:16.971Z,100373.25
2023-03-27T21:02:43.995Z,100377.63
2023-03-27T21:05:10.921Z,100370.22
2023-03-27T21:07:38.011Z,100375.47
2023-03-27T21:10:06.464Z,100379.34
2023-03-27T21:12:32.904Z,100362.22
2023-03-27T21:14:59.263Z,100371.56
2023-03-27T21:17:25.837Z,100383.16
2023-03-27T21:19:52.171Z,100381.66
2023-03-27T21:22:18.584Z,100383.03
2023-03-27T21:24:45.170Z,100370.50
2023-03-27T21:27:12.511Z,100379.63
2023-03-27T21:29:38.851Z,100382.47
2023-03-27T21:32:05.694Z,100389.91
2023-03-27T21:34:32.088Z,100388.28
2023-03-27T21:36:58.493Z,100404.88
2023-03-27T21:39:24.832Z,100396.91
2023-03-27T21:41:51.128Z,100404.34
2023-03-27T21:44:17.461Z,100410.63
2023-03-27T21:46:43.783Z,100401.88
2023-03-27T21:49:10.146Z,100401.06
2023-03-27T21:51:36.487Z,100401.97
2023-03-27T21:54:02.819Z,100409.94
2023-03-27T21:56:29.163Z,100404.81
2023-03-27T21:58:57.279Z,100408.84
2023-03-27T22:01:24.078Z,100409.69
2023-03-27T22:03:50.861Z,100417.47
2023-03-27T22:06:17.539Z,100411.09
2023-03-27T22:08:44.317Z,100410.78
2023-03-27T22:11:12.067Z,100413.13
2023-03-27T22:13:39.164Z,100426.44
2023-03-27T22:16:16.625Z,100430.06
2023-03-27T22:18:44.038Z,100414.78
2023-03-27T22:24:05.546Z,100430.25
2023-03-27T22:26:35.628Z,100430.16
2023-03-27T22:29:01.966Z,100434.81
2023-03-27T22:31:29.268Z,100431.47
2023-03-27T22:33:55.831Z,100432.22
2023-03-27T22:36:22.599Z,100430.31
2023-03-27T22:38:49.017Z,100430.50
2023-03-27T22:41:15.919Z,100444.69
2023-03-27T22:43:42.521Z,100431.19
2023-03-27T22:46:12.005Z,100447.16
2023-03-27T22:48:38.638Z,100430.91
2023-03-27T22:51:05.564Z,100434.50
2023-03-27T22:53:32.847Z,100443.63
2023-03-27T22:56:00.218Z,100448.97
2023-03-27T22:58:27.554Z,100455.63
2023-03-27T23:00:55.252Z,100449.66
2023-03-27T23:03:22.823Z,100448.19
2023-03-27T23:05:51.130Z,100459.00
2023-03-27T23:08:19.358Z,100463.50
2023-03-27T23:10:46.332Z,100469.25
2023-03-27T23:13:13.150Z,100466.22
2023-03-27T23:15:39.473Z,100467.19
2023-03-27T23:18:05.982Z,100473.88
2023-03-27T23:20:32.584Z,100473.66
2023-03-27T23:22:58.934Z,100466.03
2023-03-27T23:25:25.326Z,100469.63
2023-03-27T23:27:51.626Z,100479.25
2023-03-27T23:30:18.003Z,100478.56
2023-03-27T23:32:44.380Z,100486.00
2023-03-27T23:35:12.005Z,100486.50
2023-03-27T23:37:38.308Z,100489.25
2023-03-27T23:40:05.164Z,100483.34
2023-03-27T23:42:31.632Z,100496.69
2023-03-27T23:44:57.943Z,100498.56
2023-03-27T23:47:24.275Z,100507.78
2023-03-27T23:49:50.637Z,100508.47
2023-03-27T23:52:16.989Z,100506.78
2023-03-27T23:54:43.281Z,100513.06
2023-03-27T23:57:09.619Z,100519.66
2023-03-27T23:59:38.132Z,100533.47
